| time (UTC) | temp F | wind direction | speed MPH | gust MPH | rain 1hr in | rain 24hr in | rain mn in | humidity % | barometer mb |
| 20260509044521 | 56 | 130 | 1.0 | 3.0 | 0.00 | 0.00 | 0.00 | 32 | 1017.8 |
| 20260509043019 | 57 | 302 | 1.0 | 5.0 | 0.00 | 0.00 | 0.00 | 33 | 1017.9 |
| 20260509041528 | 57 | 257 | 1.0 | 4.0 | 0.00 | 0.00 | 0.00 | 32 | 1017.7 |
| 20260509040017 | 58 | 333 | 3.0 | 8.0 | 0.00 | 0.00 | 0.00 | 31 | 1017.6 |
| 20260509034529 | 58 | 232 | 4.0 | 7.0 | 0.00 | 0.00 | 0.00 | 30 | 1017.3 |
| 20260509033026 | 59 | 238 | 2.0 | 9.0 | 0.00 | 0.00 | 0.00 | 29 | 1016.9 |
| 20260509031526 | 60 | 306 | 1.0 | 9.0 | 0.00 | 0.00 | 0.00 | 26 | 1016.6 |
| 20260509030026 | 61 | 306 | 3.0 | 7.0 | 0.00 | 0.00 | 0.00 | 24 | 1016.3 |
| 20260509024525 | 61 | 240 | 5.0 | 18.0 | 0.00 | 0.00 | 0.00 | 23 | 1016.2 |
| 20260509023021 | 62 | 248 | 6.0 | 9.0 | 0.00 | 0.00 | 0.00 | 22 | 1016.0 |
| 20260509021521 | 63 | 248 | 3.0 | 9.0 | 0.00 | 0.00 | 0.00 | 21 | 1015.9 |
| 20260509020008 | 63 | 221 | 4.0 | 13.0 | 0.00 | 0.00 | 0.00 | 21 | 1015.7 |
| 20260509014512 | 65 | 275 | 10.0 | 16.0 | 0.00 | 0.00 | 0.00 | 18 | 1015.4 |
| 20260509013011 | 65 | 248 | 7.0 | 16.0 | 0.00 | 0.00 | 0.00 | 17 | 1015.3 |
| 20260509011508 | 65 | 248 | 10.0 | 15.0 | 0.00 | 0.00 | 0.00 | 18 | 1015.4 |
| 20260509010025 | 64 | 223 | 12.0 | 17.0 | 0.00 | 0.00 | 0.00 | 17 | 1015.3 |
| 20260509004517 | 65 | 281 | 8.0 | 12.0 | 0.00 | 0.00 | 0.00 | 19 | 1015.3 |
| 20260509003005 | 65 | 223 | 11.0 | 15.0 | 0.00 | 0.00 | 0.00 | 17 | 1015.3 |
| 20260509001515 | 65 | 233 | 4.0 | 8.0 | 0.00 | 0.00 | 0.00 | 24 | 1015.4 |
| 20260509000011 | 65 | 244 | 6.0 | 9.0 | 0.00 | 0.00 | 0.00 | 25 | 1015.4 |
| 20260508234521 | 65 | 253 | 2.0 | 3.0 | 0.00 | 0.00 | 0.00 | 26 | 1015.5 |
| 20260508233016 | 65 | 218 | 5.0 | 9.0 | 0.00 | 0.00 | 0.00 | 25 | 1015.5 |
| 20260508231516 | 65 | 235 | 4.0 | 11.0 | 0.00 | 0.00 | 0.00 | 26 | 1015.7 |
| 20260508230025 | 65 | 284 | 3.0 | 7.0 | 0.00 | 0.00 | 0.00 | 27 | 1015.6 |
| 20260508224507 | 66 | 244 | 4.0 | 6.0 | 0.00 | 0.00 | 0.00 | 26 | 1015.5 |
| 20260508223013 | 66 | 236 | 6.0 | 11.0 | 0.00 | 0.00 | 0.00 | 25 | 1015.7 |
| 20260508221535 | 66 | 248 | 9.0 | 17.0 | 0.00 | 0.00 | 0.00 | 22 | 1015.4 |
| 20260508220017 | 67 | 263 | 11.0 | 17.0 | 0.00 | 0.00 | 0.00 | 22 | 1015.4 |
| 20260508214518 | 67 | 246 | 12.0 | 15.0 | 0.00 | 0.00 | 0.00 | 24 | 1015.3 |
| 20260508213023 | 68 | 248 | 9.0 | 13.0 | 0.00 | 0.00 | 0.00 | 28 | 1015.3 |
| 20260508211516 | 69 | 250 | 6.0 | 9.0 | 0.00 | 0.00 | 0.00 | 29 | 1015.3 |
| 20260508210015 | 69 | 254 | 3.0 | 9.0 | 0.00 | 0.00 | 0.00 | 31 | 1015.3 |
| 20260508204515 | 69 | 279 | 3.0 | 12.0 | 0.00 | 0.00 | 0.00 | 30 | 1015.4 |
| 20260508203019 | 69 | 232 | 5.0 | 9.0 | 0.00 | 0.00 | 0.00 | 31 | 1015.2 |
| 20260508201521 | 69 | 235 | 3.0 | 9.0 | 0.00 | 0.00 | 0.00 | 36 | 1015.2 |
| 20260508200019 | 68 | 263 | 4.0 | 8.0 | 0.00 | 0.00 | 0.00 | 35 | 1015.2 |
| 20260508194520 | 68 | 232 | 3.0 | 7.0 | 0.00 | 0.00 | 0.00 | 35 | 1015.3 |
| 20260508193021 | 67 | 344 | 3.0 | 8.0 | 0.00 | 0.00 | 0.00 | 34 | 1015.4 |
| 20260508191520 | 67 | 222 | 3.0 | 6.0 | 0.00 | 0.00 | 0.00 | 40 | 1015.5 |
| 20260508190023 | 67 | 257 | 3.0 | 5.0 | 0.00 | 0.00 | 0.00 | 36 | 1015.5 |
| 20260508184517 | 68 | 219 | 1.0 | 5.0 | 0.00 | 0.00 | 0.00 | 35 | 1015.6 |
| 20260508183022 | 67 | 230 | 5.0 | 10.0 | 0.00 | 0.00 | 0.00 | 37 | 1015.8 |
| 20260508181522 | 67 | 11 | 1.0 | 3.0 | 0.00 | 0.00 | 0.00 | 39 | 1015.9 |
| 20260508180024 | 66 | 327 | 2.0 | 8.0 | 0.00 | 0.00 | 0.00 | 37 | 1016.0 |
| 20260508174535 | 65 | 294 | 1.0 | 5.0 | 0.00 | 0.00 | 0.00 | 38 | 1016.2 |
| 20260508173025 | 66 | 242 | 2.0 | 5.0 | 0.00 | 0.00 | 0.00 | 37 | 1016.4 |
| 20260508171523 | 65 | 26 | 1.0 | 5.0 | 0.00 | 0.00 | 0.00 | 39 | 1016.4 |
| 20260508170023 | 63 | 251 | 1.0 | 6.0 | 0.00 | 0.00 | 0.00 | 43 | 1016.5 |
| 20260508164526 | 62 | 271 | 3.0 | 5.0 | 0.00 | 0.00 | 0.00 | 45 | 1016.7 |
| 20260508163019 | 61 | 249 | 2.0 | 3.0 | 0.00 | 0.00 | 0.00 | 51 | 1016.8 |
| 20260508161519 | 60 | 217 | 1.0 | 3.0 | 0.00 | 0.00 | 0.00 | 50 | 1016.9 |
| 20260508160018 | 58 | 247 | 2.0 | 3.0 | 0.00 | 0.00 | 0.00 | 50 | 1016.9 |
| 20260508154528 | 57 | 195 | 0.0 | 3.0 | 0.00 | 0.00 | 0.00 | 53 | 1017.0 |
| 20260508153026 | 55 | 198 | 1.0 | 3.0 | 0.00 | 0.00 | 0.00 | 55 | 1017.2 |
| 20260508151524 | 54 | 240 | 2.0 | 4.0 | 0.00 | 0.00 | 0.00 | 58 | 1017.2 |
| 20260508150025 | 53 | 221 | 1.0 | 3.0 | 0.00 | 0.00 | 0.00 | 60 | 1017.2 |
| 20260508144523 | 52 | 224 | 1.0 | 3.0 | 0.00 | 0.00 | 0.00 | 59 | 1017.3 |
| 20260508143021 | 52 | 243 | 2.0 | 3.0 | 0.00 | 0.00 | 0.00 | 60 | 1017.3 |
| 20260508141520 | 50 | 232 | 1.0 | 5.0 | 0.00 | 0.00 | 0.00 | 62 | 1017.3 |
| 20260508140015 | 49 | 211 | 1.0 | 4.0 | 0.00 | 0.00 | 0.00 | 66 | 1017.3 |
| 20260508133028 | 46 | 217 | 3.0 | 9.0 | 0.00 | 0.00 | 0.00 | 67 | 1017.2 |
| 20260508131512 | 46 | 237 | 3.0 | 6.0 | 0.00 | 0.00 | 0.00 | 67 | 1017.1 |
| 20260508130008 | 44 | 177 | 0.0 | 2.0 | 0.00 | 0.00 | 0.00 | 70 | 1016.9 |
| 20260508124525 | 44 | 202 | 5.0 | 8.0 | 0.00 | 0.00 | 0.00 | 69 | 1016.7 |
| 20260508123025 | 46 | 232 | 2.0 | 6.0 | 0.00 | 0.00 | 0.00 | 65 | 1016.6 |
| 20260508121523 | 47 | 177 | 2.0 | 9.0 | 0.00 | 0.00 | 0.00 | 64 | 1016.5 |
| 20260508120021 | 46 | 227 | 2.0 | 5.0 | 0.00 | 0.00 | 0.00 | 66 | 1016.6 |
| 20260508111515 | 47 | 168 | 1.0 | 5.0 | 0.00 | 0.00 | 0.00 | 64 | 1016.6 |
| 20260508110012 | 47 | 199 | 1.0 | 5.0 | 0.00 | 0.00 | 0.00 | 64 | 1016.6 |
| 20260508104510 | 47 | 203 | 2.0 | 4.0 | 0.00 | 0.00 | 0.00 | 64 | 1016.4 |
| 20260508103034 | 47 | 225 | 1.0 | 7.0 | 0.00 | 0.00 | 0.00 | 65 | 1016.4 |
| 20260508101524 | 47 | 211 | 1.0 | 3.0 | 0.00 | 0.00 | 0.00 | 64 | 1016.5 |
| 20260508100027 | 48 | 225 | 2.0 | 7.0 | 0.00 | 0.00 | 0.00 | 63 | 1016.3 |
| 20260508094518 | 48 | 234 | 0.0 | 5.0 | 0.00 | 0.00 | 0.00 | 63 | 1016.3 |
| 20260508091517 | 49 | 150 | 1.0 | 10.0 | 0.00 | 0.00 | 0.00 | 59 | 1016.4 |
| 20260508090016 | 50 | 141 | 6.0 | 11.0 | 0.00 | 0.00 | 0.00 | 59 | 1016.3 |
| 20260508084527 | 50 | 129 | 7.0 | 10.0 | 0.00 | 0.00 | 0.00 | 58 | 1016.4 |
| 20260508083027 | 50 | 130 | 5.0 | 10.0 | 0.00 | 0.00 | 0.00 | 57 | 1016.4 |
| 20260508081524 | 50 | 175 | 5.0 | 10.0 | 0.00 | 0.00 | 0.00 | 58 | 1016.4 |
| 20260508080024 | 50 | 159 | 7.0 | 11.0 | 0.00 | 0.00 | 0.00 | 58 | 1016.4 |
| 20260508074522 | 50 | 134 | 10.0 | 12.0 | 0.00 | 0.00 | 0.00 | 57 | 1016.4 |
| 20260508073028 | 51 | 132 | 7.0 | 13.0 | 0.00 | 0.00 | 0.00 | 57 | 1016.5 |
| 20260508071518 | 51 | 143 | 9.0 | 12.0 | 0.00 | 0.00 | 0.00 | 57 | 1016.4 |
| 20260508070022 | 51 | 141 | 9.0 | 13.0 | 0.00 | 0.00 | 0.00 | 56 | 1016.3 |
| 20260508064529 | 52 | 126 | 6.0 | 13.0 | 0.00 | 0.00 | 0.00 | 55 | 1016.3 |
| 20260508063028 | 51 | 106 | 10.0 | 13.0 | 0.00 | 0.00 | 0.00 | 56 | 1016.3 |
| 20260508061527 | 51 | 170 | 1.0 | 11.0 | 0.00 | 0.00 | 0.00 | 56 | 1016.2 |
| 20260508060025 | 52 | 136 | 9.0 | 14.0 | 0.00 | 0.00 | 0.00 | 54 | 1016.2 |
| 20260508054529 | 52 | 155 | 10.0 | 14.0 | 0.00 | 0.00 | 0.00 | 54 | 1016.1 |
| 20260508053026 | 53 | 123 | 9.0 | 13.0 | 0.00 | 0.00 | 0.00 | 53 | 1016.1 |
| 20260508051520 | 53 | 119 | 9.0 | 11.0 | 0.00 | 0.00 | 0.00 | 53 | 1015.9 |
| 20260508050020 | 53 | 127 | 8.0 | 12.0 | 0.00 | 0.00 | 0.00 | 54 | 1015.9 |